Time;durP1;ratioP1;P1;durP2;ratioP2;P2;SDS_P1;SDS_P2;PMS_P1;PMS_P2;Temp;Humidity;BMP_temperature;BMP_pressure;BME280_temperature;BME280_humidity;BME280_pressure;Samples;Min_cycle;Max_cycle;Signal;HPM_P1;HPM_P2
2022/06/14 00:03:08;;;;;;;;;3.67;3.00;;;;;;;;5055453;28;45290;-69
2022/06/14 00:05:34;;;;;;;;;2.00;2.00;;;;;;;;5055522;28;45567;-69
2022/06/14 00:07:59;;;;;;;;;3.00;3.00;;;;;;;;5055157;28;46904;-69
2022/06/14 00:10:25;;;;;;;;;4.00;3.00;;;;;;;;5055480;28;45431;-69
2022/06/14 00:12:50;;;;;;;;;5.33;4.00;;;;;;;;5055293;28;45777;-69
2022/06/14 00:15:16;;;;;;;;;3.00;3.00;;;;;;;;5055505;28;45453;-69
2022/06/14 00:17:41;;;;;;;;;0.67;0.00;;;;;;;;5055489;28;45361;-69
2022/06/14 00:20:06;;;;;;;;;2.00;2.00;;;;;;;;5055149;28;45403;-69
2022/06/14 00:22:32;;;;;;;;;1.67;1.67;;;;;;;;5055342;28;45448;-69
2022/06/14 00:24:58;;;;;;;;;5.00;1.00;;;;;;;;5055291;28;45370;-69
2022/06/14 00:27:23;;;;;;;;;1.00;1.00;;;;;;;;5054679;28;46615;-69
2022/06/14 00:29:48;;;;;;;;;4.33;2.00;;;;;;;;5055149;28;45312;-69
2022/06/14 00:32:13;;;;;;;;;1.00;1.00;;;;;;;;5055344;28;45348;-69
2022/06/14 00:34:38;;;;;;;;;2.67;2.67;;;;;;;;5055259;28;45313;-69
2022/06/14 00:37:04;;;;;;;;;1.33;1.00;;;;;;;;5054860;28;46442;-69
2022/06/14 00:39:29;;;;;;;;;4.00;4.00;;;;;;;;5055741;28;45424;-69
2022/06/14 00:41:57;;;;;;;;;2.00;2.00;;;;;;;;5058317;28;45422;-70
2022/06/14 00:44:26;;;;;;;;;2.33;2.33;;;;;;;;5058543;28;45614;-70
2022/06/14 00:46:51;;;;;;;;;1.67;1.67;;;;;;;;5058173;28;46477;-69
2022/06/14 00:49:24;;;;;;;;;4.33;0.33;;;;;;;;5058264;28;45524;-69
2022/06/14 00:52:00;;;;;;;;;3.33;2.00;;;;;;;;5058374;28;45423;-69
2022/06/14 00:54:30;;;;;;;;;0.67;0.67;;;;;;;;5058796;28;45344;-69
2022/06/14 00:57:13;;;;;;;;;2.67;1.33;;;;;;;;5057843;28;46780;-69
2022/06/14 00:59:42;;;;;;;;;2.33;1.67;;;;;;;;5058083;28;46296;-70
2022/06/14 01:02:14;;;;;;;;;2.33;2.33;;;;;;;;5054189;28;45254;-69
2022/06/14 01:04:40;;;;;;;;;3.67;2.67;;;;;;;;5058309;28;46321;-69
2022/06/14 01:07:14;;;;;;;;;5.67;3.67;;;;;;;;5057570;28;45394;-69
2022/06/14 01:09:49;;;;;;;;;3.00;3.00;;;;;;;;5057927;28;45325;-69
2022/06/14 01:12:22;;;;;;;;;4.00;4.00;;;;;;;;5057946;28;45934;-69
2022/06/14 01:15:08;;;;;;;;;7.67;4.33;;;;;;;;5058102;28;45937;-69
2022/06/14 01:17:35;;;;;;;;;7.67;5.00;;;;;;;;5057657;28;46592;-69
2022/06/14 01:20:00;;;;;;;;;2.67;2.67;;;;;;;;5057566;28;45712;-69
2022/06/14 01:22:26;;;;;;;;;4.00;2.67;;;;;;;;5058081;28;45357;-69
2022/06/14 01:24:52;;;;;;;;;5.00;5.00;;;;;;;;5057911;28;45613;-69
2022/06/14 01:27:19;;;;;;;;;10.00;4.67;;;;;;;;5057387;28;46458;-69
2022/06/14 01:29:46;;;;;;;;;7.67;4.67;;;;;;;;5059091;28;45329;-69
2022/06/14 01:32:14;;;;;;;;;8.00;5.00;;;;;;;;5058698;28;45412;-69
2022/06/14 01:34:41;;;;;;;;;2.67;2.00;;;;;;;;5059420;28;45672;-69
2022/06/14 01:37:06;;;;;;;;;7.33;4.67;;;;;;;;5058741;28;46626;-69
2022/06/14 01:39:32;;;;;;;;;4.00;4.00;;;;;;;;5058195;28;45423;-69
2022/06/14 01:42:11;;;;;;;;;5.00;5.00;;;;;;;;5059392;28;45380;-69
2022/06/14 01:44:36;;;;;;;;;6.00;5.00;;;;;;;;5059314;28;45427;-69
2022/06/14 01:47:20;;;;;;;;;6.67;5.00;;;;;;;;5058691;28;46253;-69
2022/06/14 01:53:18;;;;;;;;;2.00;2.00;;;;;;;;5057663;28;45338;-69
2022/06/14 01:55:53;;;;;;;;;6.67;6.67;;;;;;;;5059073;28;45468;-69
2022/06/14 01:58:19;;;;;;;;;10.67;5.67;;;;;;;;5058104;28;46657;-70
2022/06/14 02:00:47;;;;;;;;;7.00;6.33;;;;;;;;5058832;28;45296;-69
2022/06/14 02:06:17;;;;;;;;;8.33;6.33;;;;;;;;5038796;28;45341;-69
2022/06/14 02:08:47;;;;;;;;;4.67;4.67;;;;;;;;5038392;28;46411;-69
2022/06/14 02:11:19;;;;;;;;;7.00;5.00;;;;;;;;5048769;28;45534;-69
2022/06/14 02:13:48;;;;;;;;;7.00;6.33;;;;;;;;5058583;28;45296;-69
2022/06/14 02:16:23;;;;;;;;;4.67;4.67;;;;;;;;5058625;28;45447;-69
2022/06/14 02:18:48;;;;;;;;;10.67;5.33;;;;;;;;5058299;28;47190;-69
2022/06/14 02:21:26;;;;;;;;;4.33;4.33;;;;;;;;5058549;28;45442;-68
2022/06/14 02:23:56;;;;;;;;;5.00;4.00;;;;;;;;5058255;28;45449;-69
2022/06/14 02:26:26;;;;;;;;;5.00;4.67;;;;;;;;5058233;28;45444;-69
2022/06/14 02:28:57;;;;;;;;;3.67;3.67;;;;;;;;5057810;28;47417;-69
2022/06/14 02:31:35;;;;;;;;;3.00;3.00;;;;;;;;5058484;28;45344;-69
2022/06/14 02:34:08;;;;;;;;;5.00;4.00;;;;;;;;5058687;28;45887;-69
2022/06/14 02:36:38;;;;;;;;;7.67;5.67;;;;;;;;5058215;28;45821;-69
2022/06/14 02:39:14;;;;;;;;;2.67;2.67;;;;;;;;5057913;28;46284;-69
2022/06/14 02:41:42;;;;;;;;;4.00;3.00;;;;;;;;5057128;28;45313;-69
2022/06/14 02:44:16;;;;;;;;;4.33;2.00;;;;;;;;5057220;28;45270;-69
2022/06/14 02:46:48;;;;;;;;;4.33;3.33;;;;;;;;5058240;28;45305;-69
2022/06/14 02:49:13;;;;;;;;;3.00;3.00;;;;;;;;5057764;28;47040;-69
2022/06/14 02:51:44;;;;;;;;;3.67;3.67;;;;;;;;5058021;28;45287;-69
2022/06/14 02:54:09;;;;;;;;;6.33;3.00;;;;;;;;5057997;28;45407;-69
2022/06/14 02:56:40;;;;;;;;;5.67;3.00;;;;;;;;5058299;28;45746;-69
2022/06/14 02:59:14;;;;;;;;;4.00;3.00;;;;;;;;5056418;28;45538;-69
2022/06/14 03:01:46;;;;;;;;;3.00;3.00;;;;;;;;5057800;28;45409;-69
2022/06/14 03:04:30;;;;;;;;;3.00;3.00;;;;;;;;5057987;28;45406;-69
2022/06/14 03:06:59;;;;;;;;;5.00;3.67;;;;;;;;5058065;28;45271;-69
2022/06/14 03:09:30;;;;;;;;;5.67;5.00;;;;;;;;5057170;28;45316;-68
2022/06/14 03:11:56;;;;;;;;;4.33;4.00;;;;;;;;5057593;28;45368;-68
2022/06/14 03:14:27;;;;;;;;;6.00;4.33;;;;;;;;5057660;28;45369;-69
2022/06/14 03:17:07;;;;;;;;;5.67;4.00;;;;;;;;5057744;28;45605;-69
2022/06/14 03:19:43;;;;;;;;;5.67;3.00;;;;;;;;5057385;28;46089;-69
2022/06/14 03:22:12;;;;;;;;;5.00;3.00;;;;;;;;5057259;28;45333;-68
2022/06/14 03:24:47;;;;;;;;;4.00;4.00;;;;;;;;5057691;28;45270;-68
2022/06/14 03:27:14;;;;;;;;;4.33;3.00;;;;;;;;5057503;28;45520;-68
2022/06/14 03:29:43;;;;;;;;;6.67;3.67;;;;;;;;5056840;28;45731;-68
2022/06/14 03:32:29;;;;;;;;;4.00;4.00;;;;;;;;5057402;28;45661;-68
2022/06/14 03:35:00;;;;;;;;;4.00;4.00;;;;;;;;5034926;28;45299;-68
2022/06/14 03:37:25;;;;;;;;;7.67;4.00;;;;;;;;5034882;28;45620;-69
2022/06/14 03:39:54;;;;;;;;;6.67;3.67;;;;;;;;5034705;28;45455;-69
2022/06/14 03:42:20;;;;;;;;;8.00;4.00;;;;;;;;5023950;28;45320;-69
2022/06/14 03:44:45;;;;;;;;;6.00;3.33;;;;;;;;5014959;28;45386;-69
2022/06/14 03:47:10;;;;;;;;;3.67;3.00;;;;;;;;5015292;28;45481;-69
2022/06/14 03:49:40;;;;;;;;;3.00;2.33;;;;;;;;5014851;28;45392;-68
2022/06/14 03:52:17;;;;;;;;;6.67;4.00;;;;;;;;5014878;28;45928;-68
2022/06/14 03:54:56;;;;;;;;;6.00;5.00;;;;;;;;5015000;28;45410;-69
2022/06/14 03:57:24;;;;;;;;;8.33;8.33;;;;;;;;5015099;28;45523;-68
2022/06/14 03:59:59;;;;;;;;;5.33;4.00;;;;;;;;5014774;28;45567;-69
2022/06/14 04:02:55;;;;;;;;;4.33;3.33;;;;;;;;5034554;28;45349;-68
2022/06/14 04:05:29;;;;;;;;;3.67;3.00;;;;;;;;5034530;28;45680;-69
2022/06/14 04:08:13;;;;;;;;;4.00;4.00;;;;;;;;5034766;28;45345;-69
2022/06/14 04:10:39;;;;;;;;;6.00;5.00;;;;;;;;5017664;28;46533;-69
2022/06/14 04:13:10;;;;;;;;;6.67;3.67;;;;;;;;5016790;28;45223;-69
2022/06/14 04:15:54;;;;;;;;;4.00;4.00;;;;;;;;5031014;28;45369;-69
2022/06/14 04:18:34;;;;;;;;;4.00;4.00;;;;;;;;5040227;28;45388;-69
2022/06/14 04:21:22;;;;;;;;;5.00;3.33;;;;;;;;5040120;28;46162;-69
2022/06/14 04:24:10;;;;;;;;;3.67;3.67;;;;;;;;5041421;28;45648;-69
2022/06/14 04:26:41;;;;;;;;;5.67;3.00;;;;;;;;5040125;28;45195;-69
2022/06/14 04:29:12;;;;;;;;;4.00;4.00;;;;;;;;5040320;28;45362;-69
2022/06/14 04:31:40;;;;;;;;;5.67;4.00;;;;;;;;5039686;28;46162;-69
2022/06/14 04:34:18;;;;;;;;;7.00;6.00;;;;;;;;5039375;28;45373;-68
2022/06/14 04:36:55;;;;;;;;;9.00;8.33;;;;;;;;5039661;28;45446;-69
2022/06/14 04:39:39;;;;;;;;;4.00;4.00;;;;;;;;5039756;28;45455;-69
2022/06/14 04:42:08;;;;;;;;;6.33;4.00;;;;;;;;5039776;28;46375;-69
2022/06/14 04:44:46;;;;;;;;;4.00;4.00;;;;;;;;5039668;28;45299;-69
2022/06/14 04:47:11;;;;;;;;;3.67;3.67;;;;;;;;5039890;28;45290;-69
2022/06/14 04:49:45;;;;;;;;;5.00;3.00;;;;;;;;5039651;28;45366;-69
2022/06/14 04:52:13;;;;;;;;;4.00;4.00;;;;;;;;5039763;28;46471;-69
2022/06/14 04:54:55;;;;;;;;;7.33;5.00;;;;;;;;5039095;28;45268;-69
2022/06/14 04:57:30;;;;;;;;;5.00;3.67;;;;;;;;5039450;28;45419;-69
2022/06/14 05:00:10;;;;;;;;;5.00;5.00;;;;;;;;5039199;28;45309;-70
2022/06/14 05:02:38;;;;;;;;;6.33;5.00;;;;;;;;5039233;28;46232;-69
2022/06/14 05:05:16;;;;;;;;;5.67;3.00;;;;;;;;5039298;28;45393;-70
2022/06/14 05:08:08;;;;;;;;;6.67;5.00;;;;;;;;5039516;28;45333;-69
2022/06/14 05:10:36;;;;;;;;;3.00;3.00;;;;;;;;5037807;28;45342;-70
2022/06/14 05:13:07;;;;;;;;;7.33;4.00;;;;;;;;5030697;28;46299;-69
2022/06/14 05:15:37;;;;;;;;;6.00;6.00;;;;;;;;5032115;28;45564;-68
2022/06/14 05:18:13;;;;;;;;;5.00;4.67;;;;;;;;5038832;28;45549;-69
2022/06/14 05:20:45;;;;;;;;;3.00;3.00;;;;;;;;5052195;28;45267;-69
2022/06/14 05:23:28;;;;;;;;;11.00;9.33;;;;;;;;5059030;28;46227;-68
2022/06/14 05:26:12;;;;;;;;;9.33;7.33;;;;;;;;5057486;28;45350;-69
2022/06/14 05:28:49;;;;;;;;;7.33;6.33;;;;;;;;5018912;28;45455;-69
2022/06/14 05:31:47;;;;;;;;;4.67;4.33;;;;;;;;5028619;28;45376;-69
2022/06/14 05:34:15;;;;;;;;;7.00;4.33;;;;;;;;5016719;28;46799;-68
2022/06/14 05:37:01;;;;;;;;;8.33;6.00;;;;;;;;5016723;28;45458;-69
2022/06/14 05:39:33;;;;;;;;;7.67;7.67;;;;;;;;5016933;28;45382;-68
2022/06/14 05:42:30;;;;;;;;;6.33;4.33;;;;;;;;5017025;28;45422;-69
2022/06/14 05:44:58;;;;;;;;;3.33;3.33;;;;;;;;4977148;28;46293;-70
2022/06/14 05:47:31;;;;;;;;;2.00;2.00;;;;;;;;4976796;28;45397;-69
2022/06/14 05:49:59;;;;;;;;;6.00;3.67;;;;;;;;4975629;28;45440;-69
2022/06/14 05:52:24;;;;;;;;;5.33;4.00;;;;;;;;4977469;28;45426;-69
2022/06/14 05:54:55;;;;;;;;;2.67;2.67;;;;;;;;4971430;28;46590;-70
2022/06/14 05:57:25;;;;;;;;;4.33;3.67;;;;;;;;4967142;28;45594;-70
2022/06/14 05:59:50;;;;;;;;;5.33;4.67;;;;;;;;4977319;28;45407;-69
2022/06/14 06:02:31;;;;;;;;;3.67;2.67;;;;;;;;4960266;28;45451;-69
2022/06/14 06:05:00;;;;;;;;;9.00;5.67;;;;;;;;4957433;28;45433;-69
2022/06/14 06:07:28;;;;;;;;;3.00;3.00;;;;;;;;4957269;28;45351;-69
2022/06/14 06:10:03;;;;;;;;;3.00;3.00;;;;;;;;4957486;28;45453;-69
2022/06/14 06:12:31;;;;;;;;;5.67;3.00;;;;;;;;4957664;28;45490;-70
2022/06/14 06:14:56;;;;;;;;;8.00;3.67;;;;;;;;4957265;28;46397;-70
2022/06/14 06:17:27;;;;;;;;;4.67;3.00;;;;;;;;4957319;28;45413;-70
2022/06/14 06:20:09;;;;;;;;;4.00;4.00;;;;;;;;4976174;28;45435;-70
2022/06/14 06:22:51;;;;;;;;;4.00;3.33;;;;;;;;5038341;28;45447;-72
2022/06/14 06:25:27;;;;;;;;;11.67;5.67;;;;;;;;5036852;28;46149;-71
2022/06/14 06:27:58;;;;;;;;;4.00;3.33;;;;;;;;5037371;28;45392;-70
2022/06/14 06:30:35;;;;;;;;;8.67;5.33;;;;;;;;5037710;28;45476;-70
2022/06/14 06:33:00;;;;;;;;;6.33;5.67;;;;;;;;5037553;28;45488;-70
2022/06/14 06:35:32;;;;;;;;;12.00;9.00;;;;;;;;5019265;28;47032;-71
2022/06/14 06:38:06;;;;;;;;;12.67;8.00;;;;;;;;5036906;28;45373;-71
2022/06/14 06:40:32;;;;;;;;;16.67;10.67;;;;;;;;5037244;28;45519;-71
2022/06/14 06:42:58;;;;;;;;;13.67;8.67;;;;;;;;5037607;28;45397;-71
2022/06/14 06:45:23;;;;;;;;;16.00;12.00;;;;;;;;5037263;28;46399;-71
2022/06/14 06:47:51;;;;;;;;;16.00;11.67;;;;;;;;5037081;28;45459;-71
2022/06/14 06:50:24;;;;;;;;;17.00;10.67;;;;;;;;5036506;28;46082;-71
2022/06/14 06:52:59;;;;;;;;;12.00;10.00;;;;;;;;5038255;28;45405;-72
2022/06/14 06:55:32;;;;;;;;;13.00;9.67;;;;;;;;5057023;28;46856;-72
2022/06/14 06:57:59;;;;;;;;;10.67;9.00;;;;;;;;5055940;28;45441;-72
2022/06/14 07:00:25;;;;;;;;;6.67;6.67;;;;;;;;5053962;28;45510;-71
2022/06/14 07:03:22;;;;;;;;;7.67;7.33;;;;;;;;5037101;28;45905;-72
2022/06/14 07:05:54;;;;;;;;;9.33;5.67;;;;;;;;5009755;28;47345;-71
2022/06/14 07:08:27;;;;;;;;;7.67;4.00;;;;;;;;4994666;28;45452;-72
2022/06/14 07:10:54;;;;;;;;;7.33;7.33;;;;;;;;4995379;28;45466;-71
2022/06/14 07:13:27;;;;;;;;;8.33;5.00;;;;;;;;5009807;28;45422;-72
2022/06/14 07:15:52;;;;;;;;;3.00;3.00;;;;;;;;5014455;28;47429;-72
2022/06/14 07:18:32;;;;;;;;;5.00;5.00;;;;;;;;5013287;28;45534;-72
2022/06/14 07:21:15;;;;;;;;;7.00;3.67;;;;;;;;5014806;28;45361;-71
2022/06/14 07:23:50;;;;;;;;;5.33;4.00;;;;;;;;5015061;28;45530;-71
2022/06/14 07:26:19;;;;;;;;;2.67;2.00;;;;;;;;5014334;28;47050;-71
2022/06/14 07:28:54;;;;;;;;;5.00;4.67;;;;;;;;5014453;28;45468;-72
2022/06/14 07:31:40;;;;;;;;;3.67;3.33;;;;;;;;4998500;28;45501;-71
2022/06/14 07:34:06;;;;;;;;;3.33;3.33;;;;;;;;4991541;28;45578;-72
2022/06/14 07:36:38;;;;;;;;;6.33;4.00;;;;;;;;4994629;28;45403;-72
2022/06/14 07:39:08;;;;;;;;;1.67;1.67;;;;;;;;4993662;28;45556;-71
2022/06/14 07:41:33;;;;;;;;;2.00;2.00;;;;;;;;5023533;28;45477;-72
2022/06/14 07:44:06;;;;;;;;;4.00;2.67;;;;;;;;5036747;28;45480;-72
2022/06/14 07:46:35;;;;;;;;;1.67;1.67;;;;;;;;5035880;28;46531;-72
2022/06/14 07:49:20;;;;;;;;;4.33;2.00;;;;;;;;5036536;28;45539;-71
2022/06/14 07:52:15;;;;;;;;;7.33;3.00;;;;;;;;5049519;28;45353;-70
2022/06/14 07:54:43;;;;;;;;;4.33;2.00;;;;;;;;5017982;28;45348;-72
2022/06/14 07:57:14;;;;;;;;;3.67;2.00;;;;;;;;5017786;28;46253;-70
2022/06/14 07:59:49;;;;;;;;;3.00;3.00;;;;;;;;5017191;28;45440;-71
2022/06/14 08:02:23;;;;;;;;;3.00;2.00;;;;;;;;5013515;28;45512;-72
2022/06/14 08:04:57;;;;;;;;;4.00;1.00;;;;;;;;5017999;28;45548;-71
2022/06/14 08:07:23;;;;;;;;;3.67;2.00;;;;;;;;5017570;28;46490;-71
2022/06/14 08:10:07;;;;;;;;;4.00;2.33;;;;;;;;5009356;28;45395;-71
2022/06/14 08:12:39;;;;;;;;;5.00;2.00;;;;;;;;5009339;28;45374;-71
2022/06/14 08:15:04;;;;;;;;;2.00;2.00;;;;;;;;4997900;28;45445;-71
2022/06/14 08:17:35;;;;;;;;;1.33;1.33;;;;;;;;4997305;28;45498;-71
2022/06/14 08:20:08;;;;;;;;;2.00;2.00;;;;;;;;4997666;28;45440;-70
2022/06/14 08:22:37;;;;;;;;;2.33;1.00;;;;;;;;4997804;28;45545;-72
2022/06/14 08:25:07;;;;;;;;;4.33;3.00;;;;;;;;4997655;28;45481;-72
2022/06/14 08:27:34;;;;;;;;;4.00;2.67;;;;;;;;5007526;28;45441;-70
2022/06/14 08:30:05;;;;;;;;;3.33;2.00;;;;;;;;4995237;28;45577;-72
2022/06/14 08:32:33;;;;;;;;;1.67;1.67;;;;;;;;5019325;28;45444;-71
2022/06/14 08:35:02;;;;;;;;;1.00;1.00;;;;;;;;5029323;28;45512;-72
2022/06/14 08:37:38;;;;;;;;;1.00;1.00;;;;;;;;5038852;28;46747;-72
2022/06/14 08:40:22;;;;;;;;;4.67;4.00;;;;;;;;5039423;28;45682;-72
2022/06/14 08:42:50;;;;;;;;;2.00;2.00;;;;;;;;5039220;28;45286;-71
2022/06/14 08:45:26;;;;;;;;;2.00;2.00;;;;;;;;5039395;28;45500;-72
2022/06/14 08:48:10;;;;;;;;;4.00;2.00;;;;;;;;5038965;28;45502;-70
2022/06/14 08:50:38;;;;;;;;;4.00;3.00;;;;;;;;5039056;28;45539;-72
2022/06/14 08:53:22;;;;;;;;;4.00;2.00;;;;;;;;5039078;28;45429;-71
2022/06/14 08:55:50;;;;;;;;;2.00;2.00;;;;;;;;5038946;28;45509;-72
2022/06/14 08:58:24;;;;;;;;;2.00;2.00;;;;;;;;5029684;28;47254;-72
2022/06/14 09:00:58;;;;;;;;;2.67;1.67;;;;;;;;5023049;28;45460;-70
2022/06/14 09:03:26;;;;;;;;;1.67;1.33;;;;;;;;5033786;28;45334;-71
2022/06/14 09:06:01;;;;;;;;;2.00;2.00;;;;;;;;5024058;28;45434;-71
2022/06/14 09:08:45;;;;;;;;;3.33;3.00;;;;;;;;5018151;28;45967;-69
2022/06/14 09:11:13;;;;;;;;;2.33;2.00;;;;;;;;5018353;28;45552;-70
2022/06/14 09:13:41;;;;;;;;;1.33;1.33;;;;;;;;5018594;28;45536;-69
2022/06/14 09:16:22;;;;;;;;;3.33;2.67;;;;;;;;5018377;28;45477;-70
2022/06/14 09:18:55;;;;;;;;;1.00;1.00;;;;;;;;5015603;28;46147;-70
2022/06/14 09:21:23;;;;;;;;;1.00;1.00;;;;;;;;5018223;28;45299;-69
2022/06/14 09:24:00;;;;;;;;;1.00;1.00;;;;;;;;5018471;28;45580;-70
2022/06/14 09:26:44;;;;;;;;;2.67;1.33;;;;;;;;5017739;28;45390;-70
2022/06/14 09:29:15;;;;;;;;;2.33;2.33;;;;;;;;5017740;28;45442;-70
2022/06/14 09:31:56;;;;;;;;;1.33;1.33;;;;;;;;5018077;28;45354;-69
2022/06/14 09:34:21;;;;;;;;;3.33;2.00;;;;;;;;5018279;28;45488;-69
2022/06/14 09:36:46;;;;;;;;;2.33;2.33;;;;;;;;5018256;28;45464;-70
2022/06/14 09:39:23;;;;;;;;;2.00;2.00;;;;;;;;5018416;28;46591;-70
2022/06/14 09:42:07;;;;;;;;;1.67;1.00;;;;;;;;5005800;28;45491;-70
2022/06/14 09:44:51;;;;;;;;;2.00;2.00;;;;;;;;5017930;28;45756;-70
2022/06/14 09:47:39;;;;;;;;;2.33;2.33;;;;;;;;5018247;28;45457;-70
2022/06/14 09:50:23;;;;;;;;;2.00;2.00;;;;;;;;5012295;28;45738;-70
2022/06/14 09:53:00;;;;;;;;;1.00;1.00;;;;;;;;5018192;28;45453;-70
2022/06/14 09:55:25;;;;;;;;;1.00;1.00;;;;;;;;5018003;28;45235;-70
2022/06/14 09:57:53;;;;;;;;;4.67;1.00;;;;;;;;5024215;28;45451;-71
2022/06/14 10:00:37;;;;;;;;;2.00;1.00;;;;;;;;5037337;28;45625;-70
2022/06/14 10:03:16;;;;;;;;;1.67;0.00;;;;;;;;5037088;28;45566;-71
2022/06/14 10:05:44;;;;;;;;;2.00;2.00;;;;;;;;5037418;28;45464;-71
2022/06/14 10:08:33;;;;;;;;;2.00;2.00;;;;;;;;5037919;28;45432;-71
2022/06/14 10:11:05;;;;;;;;;0.67;0.67;;;;;;;;5034661;28;47287;-71
2022/06/14 10:13:46;;;;;;;;;1.33;1.00;;;;;;;;5036418;28;45449;-70
2022/06/14 10:16:20;;;;;;;;;1.00;1.00;;;;;;;;5039418;28;45523;-68
2022/06/14 10:18:45;;;;;;;;;0.00;0.00;;;;;;;;5036278;28;45405;-68
2022/06/14 10:21:25;;;;;;;;;2.33;2.33;;;;;;;;5049735;28;45632;-70
2022/06/14 10:24:06;;;;;;;;;0.33;0.33;;;;;;;;5040562;28;45264;-73
2022/06/14 10:29:43;;;;;;;;;0.67;0.00;;;;;;;;5058145;28;45354;-70
2022/06/14 10:32:12;;;;;;;;;1.25;0.25;;;;;;;;5017613;28;46210;-70
2022/06/14 10:34:43;;;;;;;;;1.33;0.00;;;;;;;;5017320;28;45458;-71
2022/06/14 10:37:24;;;;;;;;;1.75;0.75;;;;;;;;5017692;28;45756;-74
2022/06/14 10:39:49;;;;;;;;;0.00;0.00;;;;;;;;5017908;28;45470;-72
2022/06/14 10:42:24;;;;;;;;;1.33;1.33;;;;;;;;5026939;28;46642;-70
2022/06/14 10:44:58;;;;;;;;;1.00;1.00;;;;;;;;5057601;28;45452;-70
2022/06/14 10:47:26;;;;;;;;;0.67;0.67;;;;;;;;5057611;28;45576;-69
2022/06/14 10:49:57;;;;;;;;;1.33;1.33;;;;;;;;5057623;28;45476;-69
2022/06/14 10:52:32;;;;;;;;;1.00;1.00;;;;;;;;5057268;28;46068;-70
2022/06/14 10:55:03;;;;;;;;;2.00;2.00;;;;;;;;5057194;28;45350;-70
2022/06/14 10:57:42;;;;;;;;;1.50;1.50;;;;;;;;5052645;28;45441;-69
2022/06/14 11:00:13;;;;;;;;;1.00;1.00;;;;;;;;5057533;28;45418;-69
2022/06/14 11:02:58;;;;;;;;;1.33;1.00;;;;;;;;5056073;28;46286;-69
2022/06/14 11:05:25;;;;;;;;;1.00;1.00;;;;;;;;5037001;28;45426;-70
2022/06/14 11:07:57;;;;;;;;;3.00;1.33;;;;;;;;5037272;28;45456;-70
2022/06/14 11:10:23;;;;;;;;;2.00;1.67;;;;;;;;5044139;28;45296;-70
2022/06/14 11:12:54;;;;;;;;;1.67;1.67;;;;;;;;5043736;28;46107;-69
2022/06/14 11:15:26;;;;;;;;;3.67;2.00;;;;;;;;5040769;28;45357;-69
2022/06/14 11:18:10;;;;;;;;;4.00;4.00;;;;;;;;5034472;28;45444;-69
2022/06/14 11:20:54;;;;;;;;;1.67;1.67;;;;;;;;5035052;28;45505;-68
2022/06/14 11:23:28;;;;;;;;;2.67;2.67;;;;;;;;5041406;28;46434;-67
2022/06/14 11:25:53;;;;;;;;;0.67;0.67;;;;;;;;5036186;28;45441;-67
2022/06/14 11:28:36;;;;;;;;;3.33;3.33;;;;;;;;5036133;28;45368;-69
2022/06/14 11:31:21;;;;;;;;;4.67;3.67;;;;;;;;5053710;28;45408;-67
2022/06/14 11:33:55;;;;;;;;;4.33;3.00;;;;;;;;5050441;28;46486;-66
2022/06/14 11:36:38;;;;;;;;;2.00;2.00;;;;;;;;5035737;28;45261;-68
2022/06/14 11:39:17;;;;;;;;;3.67;3.00;;;;;;;;5037184;28;45421;-67
2022/06/14 11:41:44;;;;;;;;;3.67;3.67;;;;;;;;5036527;28;45512;-66
2022/06/14 11:44:36;;;;;;;;;4.00;3.00;;;;;;;;5045857;28;46560;-66
2022/06/14 11:47:22;;;;;;;;;5.00;2.00;;;;;;;;5034235;28;45522;-67
2022/06/14 11:49:50;;;;;;;;;5.00;3.00;;;;;;;;5035243;28;45565;-66
2022/06/14 11:52:25;;;;;;;;;8.00;5.00;;;;;;;;5041677;28;45506;-66
2022/06/14 11:54:50;;;;;;;;;13.00;13.00;;;;;;;;5055914;28;46379;-67
2022/06/14 11:57:21;;;;;;;;;4.00;4.00;;;;;;;;5055265;28;45308;-68
2022/06/14 11:59:53;;;;;;;;;4.00;4.00;;;;;;;;5036450;28;45349;-66
2022/06/14 12:02:30;;;;;;;;;1.00;1.00;;;;;;;;5036551;28;45377;-71
2022/06/14 12:05:16;;;;;;;;;5.33;2.67;;;;;;;;5036019;28;45325;-71
2022/06/14 12:07:42;;;;;;;;;3.00;3.00;;;;;;;;5035869;28;45419;-71
2022/06/14 12:10:29;;;;;;;;;3.00;3.00;;;;;;;;5036267;28;45369;-67
2022/06/14 12:13:12;;;;;;;;;8.00;7.00;;;;;;;;5036174;28;45427;-69
2022/06/14 12:16:03;;;;;;;;;5.00;3.33;;;;;;;;5035975;28;46841;-69
2022/06/14 12:18:30;;;;;;;;;4.67;2.00;;;;;;;;5035680;28;45357;-69
2022/06/14 12:21:04;;;;;;;;;3.00;3.00;;;;;;;;5036115;28;45393;-69
2022/06/14 12:23:33;;;;;;;;;3.00;3.00;;;;;;;;5036360;28;45363;-67
2022/06/14 12:28:48;;;;;;;;;3.00;1.33;;;;;;;;5015101;28;45394;-68
2022/06/14 12:31:13;;;;;;;;;3.67;3.67;;;;;;;;5015670;28;45431;-69
2022/06/14 12:33:42;;;;;;;;;2.00;2.00;;;;;;;;5015482;28;45544;-69
2022/06/14 12:36:10;;;;;;;;;2.00;2.00;;;;;;;;5016913;28;46457;-69
2022/06/14 12:38:37;;;;;;;;;5.00;2.33;;;;;;;;5018948;28;45814;-70
2022/06/14 12:41:22;;;;;;;;;2.00;2.00;;;;;;;;5019321;28;45432;-68
2022/06/14 12:44:02;;;;;;;;;3.00;2.00;;;;;;;;5019468;28;45507;-67
2022/06/14 12:46:29;;;;;;;;;4.33;4.00;;;;;;;;5018631;28;45449;-66
2022/06/14 12:49:00;;;;;;;;;3.00;2.00;;;;;;;;5018632;28;45420;-67
2022/06/14 12:51:46;;;;;;;;;3.33;2.00;;;;;;;;5019333;28;45297;-67
2022/06/14 12:54:14;;;;;;;;;2.00;2.00;;;;;;;;5022373;28;45460;-67
2022/06/14 12:56:39;;;;;;;;;3.67;3.67;;;;;;;;5031549;28;46789;-67
2022/06/14 12:59:08;;;;;;;;;3.00;3.00;;;;;;;;5033356;28;45239;-68
2022/06/14 13:01:37;;;;;;;;;2.67;2.67;;;;;;;;5040994;28;45473;-72
2022/06/14 13:04:15;;;;;;;;;5.33;2.67;;;;;;;;5046842;28;45463;-68
2022/06/14 13:06:58;;;;;;;;;4.00;2.67;;;;;;;;5037924;28;46628;-72
2022/06/14 13:09:42;;;;;;;;;4.00;4.00;;;;;;;;5038649;28;45485;-70
2022/06/14 13:12:10;;;;;;;;;3.33;3.33;;;;;;;;5038803;28;45397;-69
2022/06/14 13:14:42;;;;;;;;;3.00;3.00;;;;;;;;5044965;28;45340;-77
2022/06/14 13:17:26;;;;;;;;;2.00;2.00;;;;;;;;5047007;28;45594;-70
2022/06/14 13:19:56;;;;;;;;;1.67;1.67;;;;;;;;5038106;28;45519;-71
2022/06/14 13:22:21;;;;;;;;;5.33;3.67;;;;;;;;5049382;28;45408;-68
2022/06/14 13:25:05;;;;;;;;;14.00;14.00;;;;;;;;5038060;28;45639;-69
2022/06/14 13:27:42;;;;;;;;;5.00;3.33;;;;;;;;5038079;28;46215;-70
2022/06/14 13:30:07;;;;;;;;;2.67;1.67;;;;;;;;5038096;28;45394;-68
2022/06/14 13:32:51;;;;;;;;;3.00;3.00;;;;;;;;5038087;28;45222;-71
2022/06/14 13:35:27;;;;;;;;;2.67;2.67;;;;;;;;5038488;28;45373;-72
2022/06/14 13:38:07;;;;;;;;;1.33;1.33;;;;;;;;5038020;28;46033;-68
2022/06/14 13:40:35;;;;;;;;;6.67;5.00;;;;;;;;5026742;28;45406;-68
2022/06/14 13:43:19;;;;;;;;;2.00;2.00;;;;;;;;5038458;28;45505;-70
2022/06/14 13:45:59;;;;;;;;;2.00;2.00;;;;;;;;5038338;28;45669;-69
2022/06/14 13:48:30;;;;;;;;;3.00;3.00;;;;;;;;5036598;28;47203;-68
2022/06/14 13:51:04;;;;;;;;;3.33;2.67;;;;;;;;5037566;28;45736;-70
2022/06/14 13:53:34;;;;;;;;;1.33;1.33;;;;;;;;5037546;28;45465;-68
2022/06/14 13:55:59;;;;;;;;;1.67;1.67;;;;;;;;5049955;28;45503;-67
2022/06/14 13:58:44;;;;;;;;;4.00;2.67;;;;;;;;5042708;28;45522;-68
2022/06/14 14:01:19;;;;;;;;;2.00;2.00;;;;;;;;5030032;28;45373;-69
2022/06/14 14:03:47;;;;;;;;;2.00;2.00;;;;;;;;5037914;28;45529;-69
2022/06/14 14:06:34;;;;;;;;;2.67;1.33;;;;;;;;5022348;28;45318;-68
2022/06/14 14:09:05;;;;;;;;;2.33;2.00;;;;;;;;5038240;28;46681;-70
2022/06/14 14:11:31;;;;;;;;;3.33;3.00;;;;;;;;5037967;28;45302;-66
2022/06/14 14:14:00;;;;;;;;;3.00;3.00;;;;;;;;5038050;28;45421;-69
2022/06/14 14:16:37;;;;;;;;;2.00;2.00;;;;;;;;5046076;28;45518;-67
2022/06/14 14:19:17;;;;;;;;;2.67;2.00;;;;;;;;5037243;28;45421;-69
2022/06/14 14:21:46;;;;;;;;;2.33;1.67;;;;;;;;5054697;28;45288;-69
2022/06/14 14:24:27;;;;;;;;;4.33;2.00;;;;;;;;5058453;28;45451;-71
2022/06/14 14:26:59;;;;;;;;;1.67;1.67;;;;;;;;5058679;28;45248;-72
2022/06/14 14:29:30;;;;;;;;;6.00;3.00;;;;;;;;5058332;28;45386;-67
2022/06/14 14:32:05;;;;;;;;;1.00;1.00;;;;;;;;5058274;28;45447;-69
2022/06/14 14:34:41;;;;;;;;;2.00;2.00;;;;;;;;5058123;28;45575;-71
2022/06/14 14:37:25;;;;;;;;;3.67;2.33;;;;;;;;5058619;28;45375;-71
2022/06/14 14:40:02;;;;;;;;;1.00;1.00;;;;;;;;5058071;28;45729;-76
2022/06/14 14:42:30;;;;;;;;;1.00;1.00;;;;;;;;5057994;28;45369;-73
2022/06/14 14:45:01;;;;;;;;;3.67;2.00;;;;;;;;5058192;28;45167;-74
2022/06/14 14:47:26;;;;;;;;;3.00;3.00;;;;;;;;5058365;28;45238;-76
2022/06/14 14:50:01;;;;;;;;;2.00;2.00;;;;;;;;5057975;28;45399;-75
2022/06/14 14:52:39;;;;;;;;;2.00;2.00;;;;;;;;5058031;28;45435;-75
2022/06/14 14:55:19;;;;;;;;;2.00;2.00;;;;;;;;5057993;28;45392;-72
2022/06/14 14:57:44;;;;;;;;;4.33;2.00;;;;;;;;5058034;28;45326;-73
2022/06/14 15:00:21;;;;;;;;;2.00;2.00;;;;;;;;5056875;28;46370;-71
2022/06/14 15:05:32;;;;;;;;;3.33;3.33;;;;;;;;5057752;28;45390;-71
2022/06/14 15:08:23;;;;;;;;;1.67;1.00;;;;;;;;5058120;28;45372;-70
2022/06/14 15:10:58;;;;;;;;;3.00;1.67;;;;;;;;5057449;28;45434;-68
2022/06/14 15:13:32;;;;;;;;;1.00;1.00;;;;;;;;5057670;28;45286;-70
2022/06/14 15:15:58;;;;;;;;;1.33;1.33;;;;;;;;5057151;28;45307;-74
2022/06/14 15:21:16;;;;;;;;;3.00;2.00;;;;;;;;5057254;28;45225;-71
2022/06/14 15:23:46;;;;;;;;;2.00;2.00;;;;;;;;5057576;28;45321;-72
2022/06/14 15:26:15;;;;;;;;;3.00;3.00;;;;;;;;5057608;28;45332;-71
2022/06/14 15:28:48;;;;;;;;;1.00;1.00;;;;;;;;5057766;28;45375;-71
2022/06/14 15:31:25;;;;;;;;;2.33;2.33;;;;;;;;5057248;28;47052;-71
2022/06/14 15:33:51;;;;;;;;;4.33;4.33;;;;;;;;5057249;28;45453;-70
2022/06/14 15:36:33;;;;;;;;;3.00;1.00;;;;;;;;5057332;28;45456;-75
2022/06/14 15:39:19;;;;;;;;;2.67;2.67;;;;;;;;5057586;28;45414;-71